^^
Atglen Borough Weather Station Historical Data
 
Daily Summary for July 21, 2018 Units:  English    Metric   Both
Daily Weekly Monthly Yearly Custom
  Current: High: Low: Average:
Temperature: 69.3 °F 69.3 °F 62.4 °F 64.2 °F
Dew Point: 62.4 °F 62.4 °F 59.2 °F 60.2 °F
Humidity: 79% 90% 79% 87%
Wind Speed: 0.0mph 8.1mph 0.0mph 1.1mph
Wind Gust: 9.0mph 10.0mph - -
WindCalm - - ESE
Pressure: 30.00 in 30.06 in 29.99 in -
Precipitation: 0.00 in      
Historical Graphs
 
 
Tabular Data for July 21, 2018
Time Temperature Dew Point Pressure Wind Wind Speed Wind Gust Humidity Rainfall Rate (Hourly)
00:04 66.6 °F 60.6 °F 30.06 in SE 2.0 mph 3.0 mph 81% 0.00 in
00:09 66.4 °F 60.4 °F 30.06 in ESE 0.9 mph 3.0 mph 81% 0.00 in
00:14 66.2 °F 60.6 °F 30.06 in Calm     82% 0.00 in
00:19 66.0 °F 60.4 °F 30.06 in Calm     82% 0.00 in
00:24 66.0 °F 60.4 °F 30.06 in Calm     82% 0.00 in
00:29 65.8 °F 60.6 °F 30.06 in Calm   2.0 mph 83% 0.00 in
00:34 65.8 °F 60.6 °F 30.06 in ESE 2.0 mph 2.0 mph 83% 0.00 in
00:39 65.7 °F 60.4 °F 30.05 in ESE 0.9 mph 3.0 mph 83% 0.00 in
00:44 65.5 °F 60.4 °F 30.05 in Calm   3.0 mph 84% 0.00 in
00:49 65.1 °F 60.1 °F 30.05 in ESE 0.9 mph 3.0 mph 84% 0.00 in
00:54 64.9 °F 59.9 °F 30.05 in ESE 2.9 mph 3.0 mph 84% 0.00 in
00:59 64.8 °F 60.1 °F 30.05 in ESE 0.9 mph 3.0 mph 85% 0.00 in
01:04 64.6 °F 59.9 °F 30.05 in ESE 0.9 mph 2.0 mph 85% 0.00 in
01:09 64.2 °F 59.9 °F 30.05 in Calm   2.0 mph 86% 0.00 in
01:14 64.2 °F 59.9 °F 30.05 in ESE 0.9 mph 3.0 mph 86% 0.00 in
01:19 64.0 °F 60.1 °F 30.05 in Calm   2.0 mph 87% 0.00 in
01:24 63.7 °F 60.1 °F 30.05 in Calm   1.0 mph 88% 0.00 in
01:29 63.7 °F 60.1 °F 30.05 in Calm   1.0 mph 88% 0.00 in
01:34 63.5 °F 59.9 °F 30.05 in Calm     88% 0.00 in
01:39 63.3 °F 60.1 °F 30.05 in Calm   1.0 mph 89% 0.00 in
01:44 63.1 °F 59.9 °F 30.05 in ESE 0.9 mph 1.0 mph 89% 0.00 in
01:49 63.1 °F 59.9 °F 30.05 in Calm     89% 0.00 in
01:54 63.0 °F 59.7 °F 30.04 in Calm   1.0 mph 89% 0.00 in
01:59 63.0 °F 59.7 °F 30.04 in Calm   2.0 mph 89% 0.00 in
02:04 63.0 °F 59.9 °F 30.04 in ESE 0.9 mph 2.0 mph 90% 0.00 in
02:09 63.0 °F 59.9 °F 30.04 in ESE 0.9 mph 2.0 mph 90% 0.00 in
02:14 63.0 °F 59.9 °F 30.04 in ESE 0.9 mph 1.0 mph 90% 0.00 in
02:19 63.0 °F 59.9 °F 30.04 in ESE 0.9 mph 1.0 mph 90% 0.00 in
02:24 63.0 °F 59.9 °F 30.04 in ESE 0.9 mph 2.0 mph 90% 0.00 in
02:29 63.0 °F 59.9 °F 30.04 in Calm   1.0 mph 90% 0.00 in
02:34 62.8 °F 59.7 °F 30.04 in ESE 0.9 mph 2.0 mph 90% 0.00 in
02:39 63.0 °F 59.9 °F 30.03 in Calm   2.0 mph 90% 0.00 in
02:44 63.0 °F 59.9 °F 30.03 in ESE 0.9 mph 3.0 mph 90% 0.00 in
02:49 63.0 °F 59.9 °F 30.03 in ESE 2.0 mph 2.0 mph 90% 0.00 in
02:54 62.8 °F 59.7 °F 30.03 in Calm   1.0 mph 90% 0.00 in
02:59 62.8 °F 59.7 °F 30.02 in Calm   2.0 mph 90% 0.00 in
03:04 63.0 °F 59.9 °F 30.02 in ESE 0.9 mph 4.0 mph 90% 0.00 in
03:09 63.1 °F 59.9 °F 30.03 in ESE 0.9 mph 4.0 mph 89% 0.00 in
03:14 63.1 °F 59.9 °F 30.03 in Calm   2.0 mph 89% 0.00 in
03:19 63.1 °F 59.9 °F 30.03 in Calm     89% 0.00 in
03:24 63.3 °F 60.1 °F 30.03 in Calm     89% 0.00 in
03:29 63.3 °F 60.1 °F 30.03 in Calm   2.0 mph 89% 0.00 in
03:34 63.3 °F 60.1 °F 30.03 in ESE 0.9 mph 2.0 mph 89% 0.00 in
03:39 63.3 °F 60.1 °F 30.02 in ESE 0.9 mph 3.0 mph 89% 0.00 in
03:44 63.3 °F 60.1 °F 30.02 in ESE 0.9 mph 3.0 mph 89% 0.00 in
03:49 63.3 °F 60.1 °F 30.02 in ESE 2.0 mph 6.0 mph 89% 0.00 in
03:54 63.1 °F 59.9 °F 30.02 in Calm   1.0 mph 89% 0.00 in
03:59 63.1 °F 59.9 °F 30.02 in ESE 0.9 mph 4.0 mph 89% 0.00 in
04:04 63.0 °F 59.7 °F 30.02 in Calm   2.0 mph 89% 0.00 in
04:09 63.0 °F 59.7 °F 30.02 in Calm   2.0 mph 89% 0.00 in
04:14 62.8 °F 59.7 °F 30.02 in Calm   2.0 mph 90% 0.00 in
04:19 62.6 °F 59.5 °F 30.01 in Calm   2.0 mph 90% 0.00 in
04:24 62.6 °F 59.5 °F 30.01 in Calm   1.0 mph 90% 0.00 in
04:29 62.4 °F 59.4 °F 30.01 in Calm     90% 0.00 in
04:34 62.4 °F 59.4 °F 30.01 in Calm     90% 0.00 in
04:39 62.4 °F 59.4 °F 30.01 in Calm     90% 0.00 in
04:44 62.4 °F 59.4 °F 30.01 in Calm   3.0 mph 90% 0.00 in
04:49 62.4 °F 59.4 °F 30.00 in Calm   4.0 mph 90% 0.00 in
04:54 62.4 °F 59.4 °F 30.00 in SE 4.0 mph 4.0 mph 90% 0.00 in
04:59 62.6 °F 59.5 °F 30.00 in Calm   2.0 mph 90% 0.00 in
05:04 62.8 °F 59.7 °F 30.00 in ESE 2.0 mph 4.0 mph 90% 0.00 in
05:09 62.8 °F 59.7 °F 30.00 in ESE 2.0 mph 4.0 mph 90% 0.00 in
05:14 62.8 °F 59.7 °F 30.00 in ESE 2.0 mph 5.0 mph 90% 0.00 in
05:19 62.8 °F 59.7 °F 30.00 in Calm   3.0 mph 90% 0.00 in
05:24 62.8 °F 59.5 °F 30.00 in ESE 0.9 mph 6.0 mph 89% 0.00 in
05:29 62.6 °F 59.4 °F 30.00 in SE 0.9 mph 2.0 mph 89% 0.00 in
05:34 62.4 °F 59.2 °F 30.00 in ESE 0.9 mph 7.0 mph 89% 0.00 in
05:39 62.4 °F 59.4 °F 30.01 in ESE 2.0 mph 4.0 mph 90% 0.00 in
05:44 62.4 °F 59.2 °F 30.01 in ESE 4.0 mph 6.0 mph 89% 0.00 in
05:49 62.4 °F 59.2 °F 30.01 in SE 2.0 mph 6.0 mph 89% 0.00 in
05:54 62.6 °F 59.4 °F 30.00 in ESE 2.9 mph 4.0 mph 89% 0.00 in
05:59 62.6 °F 59.4 °F 30.00 in ESE 2.9 mph 4.0 mph 89% 0.00 in
06:04 62.8 °F 59.5 °F 30.00 in ESE 0.9 mph 3.0 mph 89% 0.00 in
06:09 63.0 °F 59.4 °F 30.00 in ESE 0.9 mph 8.0 mph 88% 0.00 in
06:14 63.0 °F 59.4 °F 30.00 in ESE 0.9 mph 2.0 mph 88% 0.00 in
06:19 63.1 °F 59.5 °F 30.00 in ESE 2.9 mph 3.0 mph 88% 0.00 in
06:24 63.1 °F 59.5 °F 30.00 in ESE 0.9 mph 4.0 mph 88% 0.00 in
06:29 63.3 °F 59.7 °F 30.01 in East 2.0 mph 6.0 mph 88% 0.00 in
06:34 63.7 °F 59.7 °F 30.00 in Calm   7.0 mph 87% 0.00 in
06:39 63.9 °F 59.9 °F 30.00 in ESE 4.0 mph 7.0 mph 87% 0.00 in
06:44 63.9 °F 59.9 °F 30.00 in Calm   6.0 mph 87% 0.00 in
06:49 64.0 °F 60.1 °F 30.00 in SE 4.9 mph 5.0 mph 87% 0.00 in
06:54 64.2 °F 60.3 °F 30.00 in East 2.0 mph 3.0 mph 87% 0.00 in
06:59 64.6 °F 60.6 °F 30.00 in Calm   10.0 mph 87% 0.00 in
07:04 64.8 °F 60.4 °F 30.00 in ESE 0.9 mph 8.0 mph 86% 0.00 in
07:09 64.9 °F 60.6 °F 30.01 in SE 4.0 mph 7.0 mph 86% 0.00 in
07:14 64.9 °F 60.6 °F 30.01 in ESE 0.9 mph 2.0 mph 86% 0.00 in
07:19 64.9 °F 60.6 °F 30.01 in Calm   4.0 mph 86% 0.00 in
07:24 64.9 °F 60.6 °F 30.01 in ESE 0.9 mph 5.0 mph 86% 0.00 in
07:29 65.1 °F 60.8 °F 30.00 in East 2.0 mph 6.0 mph 86% 0.00 in
07:34 65.3 °F 60.6 °F 30.00 in Calm   7.0 mph 85% 0.00 in
07:39 65.7 °F 61.3 °F 30.00 in ESE 2.0 mph 8.0 mph 86% 0.00 in
07:44 65.7 °F 61.0 °F 29.99 in ESE 2.0 mph 4.0 mph 85% 0.00 in
07:49 66.0 °F 61.3 °F 30.00 in NW 2.0 mph 5.0 mph 85% 0.00 in
07:54 66.4 °F 61.3 °F 30.00 in ESE 0.9 mph 8.0 mph 84% 0.00 in
07:59 66.4 °F 61.3 °F 30.00 in ESE 4.0 mph 9.0 mph 84% 0.00 in
08:04 66.6 °F 61.5 °F 30.00 in Calm   3.0 mph 84% 0.00 in
08:09 66.7 °F 61.7 °F 30.00 in ESE 0.9 mph 6.0 mph 84% 0.00 in
08:14 67.1 °F 62.1 °F 30.01 in SE 2.9 mph 4.0 mph 84% 0.00 in
08:19 67.3 °F 61.9 °F 30.00 in ENE 2.9 mph 7.0 mph 83% 0.00 in
08:24 67.6 °F 62.2 °F 30.00 in ENE 0.9 mph 9.0 mph 83% 0.00 in
08:29 68.0 °F 62.2 °F 30.00 in SE 4.9 mph 8.0 mph 82% 0.00 in
08:34 68.2 °F 62.1 °F 30.00 in SE 0.9 mph 4.0 mph 81% 0.00 in
08:39 68.4 °F 61.9 °F 30.00 in ESE 8.1 mph 8.0 mph 80% 0.00 in
08:44 68.5 °F 62.1 °F 29.99 in East 0.9 mph 6.0 mph 80% 0.00 in
08:49 68.5 °F 62.1 °F 29.99 in SSE 2.9 mph 4.0 mph 80% 0.00 in
08:54 68.7 °F 61.9 °F 29.99 in Calm   6.0 mph 79% 0.00 in
08:59 69.3 °F 62.4 °F 30.00 in Calm   9.0 mph 79% 0.00 in
Atglen Borough, Pennsylvania, USA
Compliments of Weather Underground - 2.5 mb